sensor_id;sensor_type;location;lat;lon;timestamp;pressure;altitude;pressure_sealevel;temperature;humidity
61010;BME280;46897;55.340;86.082;2023-01-15T08:22:06;101130.22;;;-6.09;75.74
61010;BME280;46897;55.340;86.082;2023-01-15T08:24:35;101110.78;;;-6.23;77.11
61010;BME280;46897;55.340;86.082;2023-01-15T08:27:04;101141.03;;;-5.97;78.05
61010;BME280;46897;55.340;86.082;2023-01-15T08:29:33;101147.25;;;-5.90;79.08
61010;BME280;46897;55.340;86.082;2023-01-15T08:32:03;101148.19;;;-5.88;79.14
61010;BME280;46897;55.340;86.082;2023-01-15T08:34:32;101148.34;;;-5.83;80.18
61010;BME280;46897;55.340;86.082;2023-01-15T08:37:01;101166.00;;;-5.71;79.39
61010;BME280;46897;55.340;86.082;2023-01-15T08:39:32;101166.94;;;-5.69;79.34
61010;BME280;46897;55.340;86.082;2023-01-15T08:42:01;101166.09;;;-5.68;79.82
61010;BME280;46897;55.340;86.082;2023-01-15T08:44:30;101151.09;;;-5.79;79.95
61010;BME280;46897;55.340;86.082;2023-01-15T08:46:59;101175.81;;;-5.61;79.90
61010;BME280;46897;55.340;86.082;2023-01-15T08:49:28;101174.31;;;-5.56;80.57
61010;BME280;46897;55.340;86.082;2023-01-15T08:51:57;101179.56;;;-5.53;80.69
61010;BME280;46897;55.340;86.082;2023-01-15T08:54:27;101184.72;;;-5.53;80.83
61010;BME280;46897;55.340;86.082;2023-01-15T08:56:58;101183.13;;;-5.49;80.50
61010;BME280;46897;55.340;86.082;2023-01-15T08:59:27;101181.41;;;-5.49;80.11
61010;BME280;46897;55.340;86.082;2023-01-15T09:01:57;101192.09;;;-5.40;79.89
61010;BME280;46897;55.340;86.082;2023-01-15T09:04:26;101195.44;;;-5.42;79.57
61010;BME280;46897;55.340;86.082;2023-01-15T09:06:55;101194.31;;;-5.49;80.08
61010;BME280;46897;55.340;86.082;2023-01-15T09:09:24;101212.72;;;-5.40;80.27
61010;BME280;46897;55.340;86.082;2023-01-15T09:11:54;101211.94;;;-5.37;79.80
61010;BME280;46897;55.340;86.082;2023-01-15T09:14:25;101224.91;;;-5.36;80.21
61010;BME280;46897;55.340;86.082;2023-01-15T09:17:14;101203.13;;;-5.44;80.33
61010;BME280;46897;55.340;86.082;2023-01-15T09:19:43;101228.50;;;-5.32;79.98
61010;BME280;46897;55.340;86.082;2023-01-15T09:22:12;101188.06;;;-5.56;79.55
61010;BME280;46897;55.340;86.082;2023-01-15T09:24:42;101227.72;;;-5.29;79.90
61010;BME280;46897;55.340;86.082;2023-01-15T09:27:11;101231.22;;;-5.27;79.61
61010;BME280;46897;55.340;86.082;2023-01-15T09:29:42;101230.41;;;-5.26;80.04
61010;BME280;46897;55.340;86.082;2023-01-15T09:32:11;101230.41;;;-5.26;79.76
61010;BME280;46897;55.340;86.082;2023-01-15T09:34:40;101240.75;;;-5.26;79.78
61010;BME280;46897;55.340;86.082;2023-01-15T09:37:10;101238.97;;;-5.27;79.50
61010;BME280;46897;55.340;86.082;2023-01-15T09:39:39;101253.66;;;-5.26;79.40
61010;BME280;46897;55.340;86.082;2023-01-15T09:42:18;101248.13;;;-5.36;79.33
61010;BME280;46897;55.340;86.082;2023-01-15T09:45:06;101261.28;;;-5.29;79.19
61010;BME280;46897;55.340;86.082;2023-01-15T09:47:40;101250.63;;;-5.39;79.33
61010;BME280;46897;55.340;86.082;2023-01-15T09:50:29;101264.78;;;-5.27;79.48
61010;BME280;46897;55.340;86.082;2023-01-15T09:53:09;101269.94;;;-5.27;79.78
61010;BME280;46897;55.340;86.082;2023-01-15T09:55:45;101279.34;;;-5.29;79.85
61010;BME280;46897;55.340;86.082;2023-01-15T09:58:17;101268.56;;;-5.42;80.20
61010;BME280;46897;55.340;86.082;2023-01-15T10:00:50;101286.97;;;-5.32;80.61
61010;BME280;46897;55.340;86.082;2023-01-15T10:03:26;101293.78;;;-5.35;80.38
61010;BME280;46897;55.340;86.082;2023-01-15T10:06:03;101288.50;;;-5.38;80.26
61010;BME280;46897;55.340;86.082;2023-01-15T10:08:37;101304.91;;;-5.36;80.46
61010;BME280;46897;55.340;86.082;2023-01-15T10:11:27;101307.41;;;-5.39;80.42
61010;BME280;46897;55.340;86.082;2023-01-15T10:14:31;101310.09;;;-5.36;80.42
61010;BME280;46897;55.340;86.082;2023-01-15T10:17:17;101329.22;;;-5.30;79.96
61010;BME280;46897;55.340;86.082;2023-01-15T10:19:47;101325.63;;;-5.34;79.62
61010;BME280;46897;55.340;86.082;2023-01-15T10:22:29;101326.41;;;-5.37;80.00
61010;BME280;46897;55.340;86.082;2023-01-15T10:25:06;101330.66;;;-5.37;79.37
61010;BME280;46897;55.340;86.082;2023-01-15T10:27:38;101316.53;;;-5.47;79.31
61010;BME280;46897;55.340;86.082;2023-01-15T10:30:15;101328.16;;;-5.36;79.43
61010;BME280;46897;55.340;86.082;2023-01-15T10:32:47;101333.94;;;-5.41;79.55
61010;BME280;46897;55.340;86.082;2023-01-15T10:35:38;101342.53;;;-5.42;79.40
61010;BME280;46897;55.340;86.082;2023-01-15T10:38:15;101345.03;;;-5.44;79.60
61010;BME280;46897;55.340;86.082;2023-01-15T10:41:08;101348.44;;;-5.45;79.80
61010;BME280;46897;55.340;86.082;2023-01-15T10:43:48;101342.53;;;-5.42;79.50
61010;BME280;46897;55.340;86.082;2023-01-15T10:46:21;101350.19;;;-5.44;79.72
61010;BME280;46897;55.340;86.082;2023-01-15T10:48:56;101345.81;;;-5.46;79.41
61010;BME280;46897;55.340;86.082;2023-01-15T10:51:32;101358.09;;;-5.41;79.70
61010;BME280;46897;55.340;86.082;2023-01-15T10:54:06;101326.50;;;-5.56;79.81
61010;BME280;46897;55.340;86.082;2023-01-15T10:56:42;101360.66;;;-5.41;79.35
61010;BME280;46897;55.340;86.082;2023-01-15T10:59:16;101350.06;;;-5.47;79.61
61010;BME280;46897;55.340;86.082;2023-01-15T11:01:49;101368.44;;;-5.39;79.34
61010;BME280;46897;55.340;86.082;2023-01-15T11:04:21;101361.47;;;-5.42;79.77
61010;BME280;46897;55.340;86.082;2023-01-15T11:06:51;101338.50;;;-5.57;79.47
61010;BME280;46897;55.340;86.082;2023-01-15T11:09:22;101374.50;;;-5.39;80.10
61010;BME280;46897;55.340;86.082;2023-01-15T11:12:05;101377.13;;;-5.37;79.83
61010;BME280;46897;55.340;86.082;2023-01-15T11:14:57;101380.41;;;-5.41;79.97
61010;BME280;46897;55.340;86.082;2023-01-15T11:17:44;101393.50;;;-5.37;80.04
61010;BME280;46897;55.340;86.082;2023-01-15T11:20:34;101382.97;;;-5.41;79.83
61010;BME280;46897;55.340;86.082;2023-01-15T11:23:09;101397.03;;;-5.35;78.69
61010;BME280;46897;55.340;86.082;2023-01-15T11:25:47;101395.00;;;-5.42;78.42
61010;BME280;46897;55.340;86.082;2023-01-15T11:28:17;101383.31;;;-5.55;78.79
61010;BME280;46897;55.340;86.082;2023-01-15T11:30:52;101396.47;;;-5.48;78.99
61010;BME280;46897;55.340;86.082;2023-01-15T11:33:24;101379.16;;;-5.51;79.14
61010;BME280;46897;55.340;86.082;2023-01-15T11:35:57;101400.97;;;-5.43;79.41
61010;BME280;46897;55.340;86.082;2023-01-15T11:38:27;101404.41;;;-5.44;79.11
61010;BME280;46897;55.340;86.082;2023-01-15T11:40:59;101392.25;;;-5.46;79.58
61010;BME280;46897;55.340;86.082;2023-01-15T11:43:29;101401.69;;;-5.47;79.30
61010;BME280;46897;55.340;86.082;2023-01-15T11:46:27;101386.81;;;-5.53;79.17
61010;BME280;46897;55.340;86.082;2023-01-15T11:49:17;101361.19;;;-5.70;79.25
61010;BME280;46897;55.340;86.082;2023-01-15T11:52:08;101414.88;;;-5.39;79.08
61010;BME280;46897;55.340;86.082;2023-01-15T11:54:40;101425.22;;;-5.39;79.48
61010;BME280;46897;55.340;86.082;2023-01-15T11:57:10;101429.63;;;-5.37;79.22
61010;BME280;46897;55.340;86.082;2023-01-15T11:59:39;101409.38;;;-5.48;79.03
61010;BME280;46897;55.340;86.082;2023-01-15T12:02:23;101433.97;;;-5.36;79.19
61010;BME280;46897;55.340;86.082;2023-01-15T12:04:58;101433.91;;;-5.37;78.74
61010;BME280;46897;55.340;86.082;2023-01-15T12:07:30;101444.97;;;-5.40;79.16
61010;BME280;46897;55.340;86.082;2023-01-15T12:10:15;101438.94;;;-5.40;79.40
61010;BME280;46897;55.340;86.082;2023-01-15T12:12:59;101454.59;;;-5.36;78.93
61010;BME280;46897;55.340;86.082;2023-01-15T12:15:40;101452.72;;;-5.40;79.02
61010;BME280;46897;55.340;86.082;2023-01-15T12:18:41;101453.56;;;-5.41;78.87
61010;BME280;46897;55.340;86.082;2023-01-15T12:21:41;101468.97;;;-5.42;78.92
61010;BME280;46897;55.340;86.082;2023-01-15T12:24:44;101463.75;;;-5.44;79.24
61010;BME280;46897;55.340;86.082;2023-01-15T12:27:40;101468.97;;;-5.42;79.38
61010;BME280;46897;55.340;86.082;2023-01-15T12:30:23;101468.28;;;-5.38;79.29
61010;BME280;46897;55.340;86.082;2023-01-15T12:33:02;101465.69;;;-5.38;79.36
61010;BME280;46897;55.340;86.082;2023-01-15T12:35:39;101473.53;;;-5.35;78.91
61010;BME280;46897;55.340;86.082;2023-01-15T12:38:14;101473.38;;;-5.40;78.97
61010;BME280;46897;55.340;86.082;2023-01-15T12:40:50;101502.00;;;-5.34;78.80
61010;BME280;46897;55.340;86.082;2023-01-15T12:43:22;101478.69;;;-5.37;78.67
61010;BME280;46897;55.340;86.082;2023-01-15T12:46:13;101474.31;;;-5.38;79.02
61010;BME280;46897;55.340;86.082;2023-01-15T12:48:47;101470.63;;;-5.44;78.99
61010;BME280;46897;55.340;86.082;2023-01-15T12:51:27;101481.88;;;-5.42;78.52
61010;BME280;46897;55.340;86.082;2023-01-15T12:54:00;101471.34;;;-5.47;78.71
61010;BME280;46897;55.340;86.082;2023-01-15T12:56:44;101471.16;;;-5.51;78.39
61010;BME280;46897;55.340;86.082;2023-01-15T12:59:19;101463.13;;;-5.59;78.56
61010;BME280;46897;55.340;86.082;2023-01-15T13:01:55;101494.84;;;-5.41;78.60
61010;BME280;46897;55.340;86.082;2023-01-15T13:04:33;101494.09;;;-5.38;78.63
61010;BME280;46897;55.340;86.082;2023-01-15T13:07:14;101481.44;;;-5.53;78.80
61010;BME280;46897;55.340;86.082;2023-01-15T13:09:49;101494.72;;;-5.44;78.36
61010;BME280;46897;55.340;86.082;2023-01-15T13:12:23;101502.47;;;-5.44;78.71
61010;BME280;46897;55.340;86.082;2023-01-15T13:14:53;101516.44;;;-5.39;78.51
61010;BME280;46897;55.340;86.082;2023-01-15T13:17:31;101508.31;;;-5.48;78.92
61010;BME280;46897;55.340;86.082;2023-01-15T13:20:13;101510.28;;;-5.42;79.21
61010;BME280;46897;55.340;86.082;2023-01-15T13:22:53;101519.03;;;-5.39;78.86
61010;BME280;46897;55.340;86.082;2023-01-15T13:25:29;101518.88;;;-5.42;78.82
61010;BME280;46897;55.340;86.082;2023-01-15T13:28:14;101512.78;;;-5.44;78.51
61010;BME280;46897;55.340;86.082;2023-01-15T13:30:57;101532.88;;;-5.37;78.44
61010;BME280;46897;55.340;86.082;2023-01-15T13:33:35;101539.66;;;-5.39;78.95
61010;BME280;46897;55.340;86.082;2023-01-15T13:36:12;101533.66;;;-5.38;78.41
61010;BME280;46897;55.340;86.082;2023-01-15T13:38:44;101543.19;;;-5.37;78.36
61010;BME280;46897;55.340;86.082;2023-01-15T13:41:18;101521.75;;;-5.55;78.27
61010;BME280;46897;55.340;86.082;2023-01-15T13:44:16;101535.00;;;-5.47;78.42
61010;BME280;46897;55.340;86.082;2023-01-15T13:46:47;101553.53;;;-5.37;78.74
61010;BME280;46897;55.340;86.082;2023-01-15T13:49:30;101547.41;;;-5.39;78.61
61010;BME280;46897;55.340;86.082;2023-01-15T13:52:03;101541.25;;;-5.42;78.54
61010;BME280;46897;55.340;86.082;2023-01-15T13:54:39;101553.38;;;-5.40;78.46
61010;BME280;46897;55.340;86.082;2023-01-15T13:57:22;101564.66;;;-5.38;78.57
61010;BME280;46897;55.340;86.082;2023-01-15T13:59:53;101561.19;;;-5.38;78.51
61010;BME280;46897;55.340;86.082;2023-01-15T14:02:24;101563.69;;;-5.40;78.77
61010;BME280;46897;55.340;86.082;2023-01-15T14:04:54;101554.88;;;-5.45;78.38
61010;BME280;46897;55.340;86.082;2023-01-15T14:07:34;101556.50;;;-5.47;78.68
61010;BME280;46897;55.340;86.082;2023-01-15T14:10:08;101559.31;;;-5.42;78.57
61010;BME280;46897;55.340;86.082;2023-01-15T14:12:45;101567.28;;;-5.36;78.30
61010;BME280;46897;55.340;86.082;2023-01-15T14:15:31;101556.78;;;-5.41;78.16
61010;BME280;46897;55.340;86.082;2023-01-15T14:18:22;101562.94;;;-5.37;78.41
61010;BME280;46897;55.340;86.082;2023-01-15T14:26:45;101565.59;;;-5.36;78.51
61010;BME280;46897;55.340;86.082;2023-01-15T14:29:48;101568.16;;;-5.36;78.20
61010;BME280;46897;55.340;86.082;2023-01-15T14:32:31;101558.41;;;-5.43;77.69
61010;BME280;46897;55.340;86.082;2023-01-15T14:35:10;101566.13;;;-5.43;77.85
61010;BME280;46897;55.340;86.082;2023-01-15T14:37:48;101573.06;;;-5.42;77.69
61010;BME280;46897;55.340;86.082;2023-01-15T14:40:21;101558.13;;;-5.49;77.71
61010;BME280;46897;55.340;86.082;2023-01-15T14:42:53;101570.50;;;-5.42;78.20
61010;BME280;46897;55.340;86.082;2023-01-15T14:45:30;101572.28;;;-5.41;78.33
61010;BME280;46897;55.340;86.082;2023-01-15T14:48:03;101571.25;;;-5.44;78.23
61010;BME280;46897;55.340;86.082;2023-01-15T14:50:34;101576.59;;;-5.40;78.25
61010;BME280;46897;55.340;86.082;2023-01-15T14:53:29;101564.41;;;-5.44;78.19
61010;BME280;46897;55.340;86.082;2023-01-15T14:56:10;101550.16;;;-5.55;77.98
61010;BME280;46897;55.340;86.082;2023-01-15T14:58:46;101575.81;;;-5.39;77.97
61010;BME280;46897;55.340;86.082;2023-01-15T15:01:33;101563.31;;;-5.49;77.90
61010;BME280;46897;55.340;86.082;2023-01-15T15:04:12;101569.56;;;-5.44;78.07
61010;BME280;46897;55.340;86.082;2023-01-15T15:06:46;101578.31;;;-5.40;77.70
61010;BME280;46897;55.340;86.082;2023-01-15T15:09:28;101581.84;;;-5.38;77.87
61010;BME280;46897;55.340;86.082;2023-01-15T15:12:06;101570.31;;;-5.46;77.86
61010;BME280;46897;55.340;86.082;2023-01-15T15:15:01;101591.28;;;-5.39;78.19
61010;BME280;46897;55.340;86.082;2023-01-15T15:17:53;101579.94;;;-5.42;77.93
61010;BME280;46897;55.340;86.082;2023-01-15T15:20:31;101592.16;;;-5.38;77.84
61010;BME280;46897;55.340;86.082;2023-01-15T15:23:11;101521.66;;;-5.78;77.88
61010;BME280;46897;55.340;86.082;2023-01-15T15:25:47;101471.09;;;-6.15;77.92
61010;BME280;46897;55.340;86.082;2023-01-15T15:28:22;101504.72;;;-5.92;77.83
61010;BME280;46897;55.340;86.082;2023-01-15T15:30:52;101500.28;;;-6.16;77.91
61010;BME280;46897;55.340;86.082;2023-01-15T15:33:25;101436.13;;;-6.29;77.68
61010;BME280;46897;55.340;86.082;2023-01-15T15:35:57;101482.25;;;-6.16;77.35
61010;BME280;46897;55.340;86.082;2023-01-15T15:38:28;101547.06;;;-5.67;77.57
61010;BME280;46897;55.340;86.082;2023-01-15T15:40:58;101545.78;;;-5.77;77.61
61010;BME280;46897;55.340;86.082;2023-01-15T15:43:33;101459.72;;;-6.20;77.29
61010;BME280;46897;55.340;86.082;2023-01-15T15:46:27;101457.16;;;-6.20;77.49
61010;BME280;46897;55.340;86.082;2023-01-15T15:49:37;101457.69;;;-6.46;77.54
61010;BME280;46897;55.340;86.082;2023-01-15T15:52:17;101426.75;;;-6.66;77.24
61010;BME280;46897;55.340;86.082;2023-01-15T15:54:57;101476.34;;;-6.33;77.13
61010;BME280;46897;55.340;86.082;2023-01-15T15:57:27;101630.66;;;-5.43;77.59
61010;BME280;46897;55.340;86.082;2023-01-15T15:59:59;101608.41;;;-5.60;77.38
61010;BME280;46897;55.340;86.082;2023-01-15T16:02:30;101535.53;;;-6.15;77.40
61010;BME280;46897;55.340;86.082;2023-01-15T16:05:19;101451.78;;;-6.63;77.35
61010;BME280;46897;55.340;86.082;2023-01-15T16:07:51;101499.19;;;-6.21;77.40
61010;BME280;46897;55.340;86.082;2023-01-15T16:10:31;101608.41;;;-5.60;77.33
61010;BME280;46897;55.340;86.082;2023-01-15T16:13:03;101480.63;;;-6.33;77.50
61010;BME280;46897;55.340;86.082;2023-01-15T16:15:36;101506.84;;;-6.22;77.42
61010;BME280;46897;55.340;86.082;2023-01-15T16:18:15;101478.41;;;-6.43;77.66
61010;BME280;46897;55.340;86.082;2023-01-15T16:20:47;101533.22;;;-6.08;77.81
61010;BME280;46897;55.340;86.082;2023-01-15T16:23:23;101570.66;;;-5.78;77.39
61010;BME280;46897;55.340;86.082;2023-01-15T16:25:58;101552.31;;;-6.05;77.66
61010;BME280;46897;55.340;86.082;2023-01-15T16:28:35;101518.06;;;-6.02;77.53
61010;BME280;46897;55.340;86.082;2023-01-15T16:31:08;101604.06;;;-5.61;77.26
61010;BME280;46897;55.340;86.082;2023-01-15T16:33:38;101639.38;;;-5.41;77.82
61010;BME280;46897;55.340;86.082;2023-01-15T16:36:07;101371.31;;;-6.97;77.32
61010;BME280;46897;55.340;86.082;2023-01-15T16:38:40;101653.09;;;-5.42;77.01
61010;BME280;46897;55.340;86.082;2023-01-15T16:41:17;101487.56;;;-6.50;76.80
61010;BME280;46897;55.340;86.082;2023-01-15T16:43:51;101514.66;;;-6.21;77.28
61010;BME280;46897;55.340;86.082;2023-01-15T16:46:22;101505.47;;;-6.34;77.16
61010;BME280;46897;55.340;86.082;2023-01-15T16:49:17;101516.13;;;-6.26;76.90
61010;BME280;46897;55.340;86.082;2023-01-15T16:51:47;101647.78;;;-5.45;76.84
61010;BME280;46897;55.340;86.082;2023-01-15T16:54:40;101646.78;;;-5.48;76.89
61010;BME280;46897;55.340;86.082;2023-01-15T16:57:30;101484.22;;;-6.67;76.78
61010;BME280;46897;55.340;86.082;2023-01-15T17:00:05;101623.34;;;-5.73;77.06
61010;BME280;46897;55.340;86.082;2023-01-15T17:02:44;101488.81;;;-6.42;76.52
61010;BME280;46897;55.340;86.082;2023-01-15T17:05:21;101587.50;;;-5.86;76.21
61010;BME280;46897;55.340;86.082;2023-01-15T17:07:51;101594.84;;;-5.95;76.40
61010;BME280;46897;55.340;86.082;2023-01-15T17:10:25;101617.31;;;-5.93;76.35
61010;BME280;46897;55.340;86.082;2023-01-15T17:12:57;101581.84;;;-5.98;76.61
61010;BME280;46897;55.340;86.082;2023-01-15T17:15:38;101549.59;;;-6.45;76.62
61010;BME280;46897;55.340;86.082;2023-01-15T17:18:27;101498.41;;;-6.57;76.91
61010;BME280;46897;55.340;86.082;2023-01-15T17:20:58;101496.75;;;-6.57;76.69
61010;BME280;46897;55.340;86.082;2023-01-15T17:23:30;101540.84;;;-6.31;77.00
61010;BME280;46897;55.340;86.082;2023-01-15T17:26:03;101539.81;;;-6.35;76.80
61010;BME280;46897;55.340;86.082;2023-01-15T17:28:33;101581.84;;;-6.36;77.11
61010;BME280;46897;55.340;86.082;2023-01-15T17:31:03;101651.44;;;-5.79;76.89
61010;BME280;46897;55.340;86.082;2023-01-15T17:33:32;101655.84;;;-5.76;76.68
61010;BME280;46897;55.340;86.082;2023-01-15T17:36:01;101612.06;;;-5.94;76.88
61010;BME280;46897;55.340;86.082;2023-01-15T17:38:31;101640.03;;;-5.84;76.69
61010;BME280;46897;55.340;86.082;2023-01-15T17:41:02;101512.19;;;-6.57;76.62
61010;BME280;46897;55.340;86.082;2023-01-15T17:43:33;101617.22;;;-6.14;76.60
61010;BME280;46897;55.340;86.082;2023-01-15T17:46:03;101521.88;;;-6.51;76.65
61010;BME280;46897;55.340;86.082;2023-01-15T17:48:32;101506.72;;;-6.63;76.25
61010;BME280;46897;55.340;86.082;2023-01-15T17:51:02;101579.91;;;-6.22;76.84
61010;BME280;46897;55.340;86.082;2023-01-15T17:53:32;101572.03;;;-6.25;76.98
61010;BME280;46897;55.340;86.082;2023-01-15T17:56:04;101625.44;;;-6.03;76.96
61010;BME280;46897;55.340;86.082;2023-01-15T17:58:51;101593.53;;;-6.24;76.23
61010;BME280;46897;55.340;86.082;2023-01-15T18:01:38;101673.72;;;-5.81;75.97
61010;BME280;46897;55.340;86.082;2023-01-15T18:04:28;101587.31;;;-6.29;75.95
61010;BME280;46897;55.340;86.082;2023-01-15T18:07:19;101647.78;;;-6.03;76.05
61010;BME280;46897;55.340;86.082;2023-01-15T18:09:50;101678.59;;;-5.87;75.97
61010;BME280;46897;55.340;86.082;2023-01-15T18:12:22;101611.66;;;-6.23;76.09
61010;BME280;46897;55.340;86.082;2023-01-15T18:14:51;101585.03;;;-6.59;75.85
61010;BME280;46897;55.340;86.082;2023-01-15T18:17:20;101570.88;;;-6.49;76.32
61010;BME280;46897;55.340;86.082;2023-01-15T18:19:50;101552.50;;;-6.57;76.30
61010;BME280;46897;55.340;86.082;2023-01-15T18:22:21;101613.22;;;-6.44;75.81
61010;BME280;46897;55.340;86.082;2023-01-15T18:24:51;101652.50;;;-6.13;76.35
61010;BME280;46897;55.340;86.082;2023-01-15T18:27:22;101579.66;;;-6.46;76.21
61010;BME280;46897;55.340;86.082;2023-01-15T18:29:56;101607.84;;;-6.31;76.08
61010;BME280;46897;55.340;86.082;2023-01-15T18:32:27;101604.44;;;-6.30;76.49
61010;BME280;46897;55.340;86.082;2023-01-15T18:34:57;101664.59;;;-5.92;76.52
61010;BME280;46897;55.340;86.082;2023-01-15T18:37:27;101683.75;;;-5.87;76.30
61010;BME280;46897;55.340;86.082;2023-01-15T18:39:56;101729.47;;;-5.65;76.32
61010;BME280;46897;55.340;86.082;2023-01-15T18:42:27;101616.38;;;-6.32;75.96
61010;BME280;46897;55.340;86.082;2023-01-15T18:45:13;101514.78;;;-6.75;76.38
61010;BME280;46897;55.340;86.082;2023-01-15T18:48:00;101566.59;;;-6.49;75.96
61010;BME280;46897;55.340;86.082;2023-01-15T18:50:29;101632.53;;;-6.17;76.12
61010;BME280;46897;55.340;86.082;2023-01-15T18:52:59;101673.34;;;-5.88;75.84
61010;BME280;46897;55.340;86.082;2023-01-15T18:55:28;101701.13;;;-5.83;75.60
61010;BME280;46897;55.340;86.082;2023-01-15T18:58:00;101609.81;;;-6.43;75.63
61010;BME280;46897;55.340;86.082;2023-01-15T19:00:30;101591.38;;;-6.53;75.74
61010;BME280;46897;55.340;86.082;2023-01-15T19:02:59;101630.44;;;-6.25;75.70
61010;BME280;46897;55.340;86.082;2023-01-15T19:05:29;101746.28;;;-5.73;75.68
61010;BME280;46897;55.340;86.082;2023-01-15T19:07:59;101601.28;;;-6.42;76.01
61010;BME280;46897;55.340;86.082;2023-01-15T19:10:28;101566.44;;;-6.89;75.73
61010;BME280;46897;55.340;86.082;2023-01-15T19:12:59;101713.66;;;-5.90;75.26
61010;BME280;46897;55.340;86.082;2023-01-15T19:15:29;101657.59;;;-6.14;75.51
61010;BME280;46897;55.340;86.082;2023-01-15T19:18:16;101739.94;;;-5.80;75.72
61010;BME280;46897;55.340;86.082;2023-01-15T19:21:05;101624.84;;;-6.35;75.71
61010;BME280;46897;55.340;86.082;2023-01-15T19:23:35;101657.38;;;-6.19;75.48
61010;BME280;46897;55.340;86.082;2023-01-15T19:26:04;101696.63;;;-6.06;75.70
61010;BME280;46897;55.340;86.082;2023-01-15T19:28:35;101743.56;;;-5.76;75.58
61010;BME280;46897;55.340;86.082;2023-01-15T19:31:06;101687.50;;;-6.18;75.57
61010;BME280;46897;55.340;86.082;2023-01-15T19:33:53;101659.09;;;-6.37;75.86
61010;BME280;46897;55.340;86.082;2023-01-15T19:36:45;101606.97;;;-6.67;76.11
61010;BME280;46897;55.340;86.082;2023-01-15T19:39:14;101638.47;;;-6.37;75.88
61010;BME280;46897;55.340;86.082;2023-01-15T19:41:43;101712.09;;;-6.06;75.90
61010;BME280;46897;55.340;86.082;2023-01-15T19:44:31;101668.06;;;-6.29;76.04
61010;BME280;46897;55.340;86.082;2023-01-15T19:47:22;101612.41;;;-6.61;75.53
61010;BME280;46897;55.340;86.082;2023-01-15T19:50:11;101687.34;;;-6.21;75.69
61010;BME280;46897;55.340;86.082;2023-01-15T19:52:48;101751.00;;;-5.82;75.39
61010;BME280;46897;55.340;86.082;2023-01-15T19:55:18;101746.59;;;-5.85;75.60
61010;BME280;46897;55.340;86.082;2023-01-15T19:57:55;101737.94;;;-5.85;75.63
61010;BME280;46897;55.340;86.082;2023-01-15T20:00:27;101738.09;;;-5.82;75.85
61010;BME280;46897;55.340;86.082;2023-01-15T20:02:58;101606.81;;;-6.70;75.39
61010;BME280;46897;55.340;86.082;2023-01-15T20:05:29;101690.13;;;-6.16;75.22
61010;BME280;46897;55.340;86.082;2023-01-15T20:07:58;101579.91;;;-6.77;75.42
61010;BME280;46897;55.340;86.082;2023-01-15T20:10:28;101655.13;;;-6.48;74.78
61010;BME280;46897;55.340;86.082;2023-01-15T20:12:58;101647.88;;;-6.56;75.07
61010;BME280;46897;55.340;86.082;2023-01-15T20:15:46;101589.81;;;-6.67;75.01
61010;BME280;46897;55.340;86.082;2023-01-15T20:18:15;101608.34;;;-6.74;75.46
61010;BME280;46897;55.340;86.082;2023-01-15T20:20:45;101659.31;;;-6.50;75.21
61010;BME280;46897;55.340;86.082;2023-01-15T20:23:14;101633.09;;;-6.60;75.35
61010;BME280;46897;55.340;86.082;2023-01-15T20:25:43;101683.25;;;-6.35;75.24
61010;BME280;46897;55.340;86.082;2023-01-15T20:28:19;101700.69;;;-6.11;75.43
61010;BME280;46897;55.340;86.082;2023-01-15T20:30:50;101750.25;;;-5.80;75.46
61010;BME280;46897;55.340;86.082;2023-01-15T20:33:23;101660.19;;;-6.32;74.75
61010;BME280;46897;55.340;86.082;2023-01-15T20:35:52;101616.69;;;-6.62;75.13
61010;BME280;46897;55.340;86.082;2023-01-15T20:38:22;101671.16;;;-6.36;75.06
61010;BME280;46897;55.340;86.082;2023-01-15T20:40:51;101684.84;;;-6.19;75.39
61010;BME280;46897;55.340;86.082;2023-01-15T20:43:21;101589.53;;;-6.73;74.88
61010;BME280;46897;55.340;86.082;2023-01-15T20:46:10;101746.66;;;-5.83;75.14
61010;BME280;46897;55.340;86.082;2023-01-15T20:48:40;101614.41;;;-6.56;75.04
61010;BME280;46897;55.340;86.082;2023-01-15T20:51:27;101611.75;;;-6.75;75.16
61010;BME280;46897;55.340;86.082;2023-01-15T20:53:56;101589.63;;;-6.89;75.34
61010;BME280;46897;55.340;86.082;2023-01-15T20:56:25;101708.03;;;-6.19;75.24
61010;BME280;46897;55.340;86.082;2023-01-15T20:58:54;101699.94;;;-6.09;74.88
61010;BME280;46897;55.340;86.082;2023-01-15T21:01:26;101714.97;;;-6.00;74.69
61010;BME280;46897;55.340;86.082;2023-01-15T21:03:55;101693.31;;;-6.22;74.88
61010;BME280;46897;55.340;86.082;2023-01-15T21:06:25;101606.16;;;-6.66;75.05
61010;BME280;46897;55.340;86.082;2023-01-15T21:08:54;101666.59;;;-6.42;75.04
61010;BME280;46897;55.340;86.082;2023-01-15T21:11:23;101625.28;;;-6.61;75.18
61010;BME280;46897;55.340;86.082;2023-01-15T21:13:54;101642.16;;;-6.50;74.88
61010;BME280;46897;55.340;86.082;2023-01-15T21:16:23;101735.31;;;-6.06;75.04
61010;BME280;46897;55.340;86.082;2023-01-15T21:18:54;101755.72;;;-5.92;74.96
61010;BME280;46897;55.340;86.082;2023-01-15T21:21:25;101615.38;;;-6.72;75.24
61010;BME280;46897;55.340;86.082;2023-01-15T21:23:55;101746.25;;;-6.10;74.89
61010;BME280;46897;55.340;86.082;2023-01-15T21:26:27;101592.69;;;-6.97;75.06
61010;BME280;46897;55.340;86.082;2023-01-15T21:28:57;101756.47;;;-5.94;75.47
61010;BME280;46897;55.340;86.082;2023-01-15T21:31:26;101675.19;;;-6.59;74.97
61010;BME280;46897;55.340;86.082;2023-01-15T21:33:57;101679.63;;;-6.57;75.53
61010;BME280;46897;55.340;86.082;2023-01-15T21:36:26;101616.53;;;-6.83;74.64
61010;BME280;46897;55.340;86.082;2023-01-15T21:38:56;101797.72;;;-5.94;75.10
61010;BME280;46897;55.340;86.082;2023-01-15T21:41:25;101715.56;;;-6.24;74.86
61010;BME280;46897;55.340;86.082;2023-01-15T21:44:10;101650.97;;;-6.63;75.06
61010;BME280;46897;55.340;86.082;2023-01-15T21:47:01;101621.75;;;-6.81;74.91
61010;BME280;46897;55.340;86.082;2023-01-15T21:49:32;101629.47;;;-6.81;74.75
61010;BME280;46897;55.340;86.082;2023-01-15T21:52:03;101624.34;;;-6.81;74.26